Terminal Aerodrome Forecast
Issued by NWS

Home | Current Version | Previous Version | Graphics & Text | Print | Product List | Glossary On
Versions: 1 2 3 4 5 6 7 8 9 10 11 12 13 14 15
000
FTUS43 KTOP 270951 AAB
TAFMHK
TAF AMD
KMHK 270951Z 2710/2806 09009KT P6SM SCT040 OVC100
     FM271300 16010KT P6SM BKN024
     FM271700 17010KT P6SM SCT020 BKN035
     FM271900 16010KT P6SM VCTS SCT020 BKN040CB=

USA.gov is the U.S. government's official web portal to all federal, state and local government web resources and services.